sensor_id;sensor_type;location;lat;lon;timestamp;P1;durP1;ratioP1;P2;durP2;ratioP2
80320;SDS011;69633;47.066;15.450;2023-04-24T00:02:02;6.03;;;3.85;;
80320;SDS011;69633;47.066;15.450;2023-04-24T00:04:28;5.32;;;3.30;;
80320;SDS011;69633;47.066;15.450;2023-04-24T00:06:55;5.47;;;3.47;;
80320;SDS011;69633;47.066;15.450;2023-04-24T00:09:22;5.22;;;3.40;;
80320;SDS011;69633;47.066;15.450;2023-04-24T00:11:48;9.75;;;3.85;;
80320;SDS011;69633;47.066;15.450;2023-04-24T00:14:13;5.80;;;3.42;;
80320;SDS011;69633;47.066;15.450;2023-04-24T00:16:39;5.57;;;3.30;;
80320;SDS011;69633;47.066;15.450;2023-04-24T00:19:04;5.00;;;3.22;;
80320;SDS011;69633;47.066;15.450;2023-04-24T00:21:31;4.65;;;3.03;;
80320;SDS011;69633;47.066;15.450;2023-04-24T00:23:57;5.13;;;3.60;;
80320;SDS011;69633;47.066;15.450;2023-04-24T00:26:23;6.32;;;3.63;;
80320;SDS011;69633;47.066;15.450;2023-04-24T00:28:49;6.43;;;3.22;;
80320;SDS011;69633;47.066;15.450;2023-04-24T00:31:14;5.30;;;3.35;;
80320;SDS011;69633;47.066;15.450;2023-04-24T00:33:40;5.55;;;3.20;;
80320;SDS011;69633;47.066;15.450;2023-04-24T00:36:06;9.60;;;3.60;;
80320;SDS011;69633;47.066;15.450;2023-04-24T00:38:32;7.13;;;4.22;;
80320;SDS011;69633;47.066;15.450;2023-04-24T00:40:57;5.88;;;3.90;;
80320;SDS011;69633;47.066;15.450;2023-04-24T00:43:22;4.82;;;3.20;;
80320;SDS011;69633;47.066;15.450;2023-04-24T00:45:48;5.38;;;3.08;;
80320;SDS011;69633;47.066;15.450;2023-04-24T00:48:13;5.90;;;3.03;;
80320;SDS011;69633;47.066;15.450;2023-04-24T00:50:39;7.47;;;3.40;;
80320;SDS011;69633;47.066;15.450;2023-04-24T00:53:05;5.13;;;3.22;;
80320;SDS011;69633;47.066;15.450;2023-04-24T00:55:31;5.43;;;3.08;;
80320;SDS011;69633;47.066;15.450;2023-04-24T00:57:57;4.28;;;2.72;;
80320;SDS011;69633;47.066;15.450;2023-04-24T01:00:23;4.03;;;2.65;;
80320;SDS011;69633;47.066;15.450;2023-04-24T01:02:49;5.43;;;3.33;;
80320;SDS011;69633;47.066;15.450;2023-04-24T01:05:16;6.35;;;3.20;;
80320;SDS011;69633;47.066;15.450;2023-04-24T01:07:43;4.90;;;2.90;;
80320;SDS011;69633;47.066;15.450;2023-04-24T01:10:11;4.22;;;2.53;;
80320;SDS011;69633;47.066;15.450;2023-04-24T01:12:38;5.70;;;3.03;;
80320;SDS011;69633;47.066;15.450;2023-04-24T01:15:03;4.85;;;2.88;;
80320;SDS011;69633;47.066;15.450;2023-04-24T01:17:30;4.35;;;2.60;;
80320;SDS011;69633;47.066;15.450;2023-04-24T01:19:56;5.70;;;3.03;;
80320;SDS011;69633;47.066;15.450;2023-04-24T01:22:22;5.00;;;3.28;;
80320;SDS011;69633;47.066;15.450;2023-04-24T01:24:48;5.68;;;3.42;;
80320;SDS011;69633;47.066;15.450;2023-04-24T01:27:14;8.43;;;4.30;;
80320;SDS011;69633;47.066;15.450;2023-04-24T01:29:39;6.53;;;3.95;;
80320;SDS011;69633;47.066;15.450;2023-04-24T01:32:05;6.38;;;3.85;;
80320;SDS011;69633;47.066;15.450;2023-04-24T01:34:31;5.80;;;3.53;;
80320;SDS011;69633;47.066;15.450;2023-04-24T01:36:57;5.90;;;3.30;;
80320;SDS011;69633;47.066;15.450;2023-04-24T01:39:22;5.60;;;3.67;;
80320;SDS011;69633;47.066;15.450;2023-04-24T01:41:53;5.00;;;3.35;;
80320;SDS011;69633;47.066;15.450;2023-04-24T01:44:19;6.47;;;3.85;;
80320;SDS011;69633;47.066;15.450;2023-04-24T01:46:45;7.22;;;3.40;;
80320;SDS011;69633;47.066;15.450;2023-04-24T01:49:11;5.30;;;3.35;;
80320;SDS011;69633;47.066;15.450;2023-04-24T01:51:37;6.35;;;3.83;;
80320;SDS011;69633;47.066;15.450;2023-04-24T01:54:02;5.63;;;3.67;;
80320;SDS011;69633;47.066;15.450;2023-04-24T01:56:28;6.43;;;3.08;;
80320;SDS011;69633;47.066;15.450;2023-04-24T01:58:55;6.65;;;3.25;;
80320;SDS011;69633;47.066;15.450;2023-04-24T02:01:23;5.05;;;2.90;;
80320;SDS011;69633;47.066;15.450;2023-04-24T02:03:49;5.03;;;3.25;;
80320;SDS011;69633;47.066;15.450;2023-04-24T02:06:15;5.53;;;3.30;;
80320;SDS011;69633;47.066;15.450;2023-04-24T02:08:41;6.72;;;3.00;;
80320;SDS011;69633;47.066;15.450;2023-04-24T02:11:08;5.53;;;3.20;;
80320;SDS011;69633;47.066;15.450;2023-04-24T02:13:34;5.53;;;3.25;;
80320;SDS011;69633;47.066;15.450;2023-04-24T02:15:59;6.82;;;3.20;;
80320;SDS011;69633;47.066;15.450;2023-04-24T02:18:25;6.35;;;3.55;;
80320;SDS011;69633;47.066;15.450;2023-04-24T02:20:50;6.25;;;3.25;;
80320;SDS011;69633;47.066;15.450;2023-04-24T02:23:15;5.60;;;3.40;;
80320;SDS011;69633;47.066;15.450;2023-04-24T02:25:41;6.20;;;3.80;;
80320;SDS011;69633;47.066;15.450;2023-04-24T02:28:06;5.75;;;3.70;;
80320;SDS011;69633;47.066;15.450;2023-04-24T02:30:32;5.85;;;3.33;;
80320;SDS011;69633;47.066;15.450;2023-04-24T02:32:57;6.57;;;3.88;;
80320;SDS011;69633;47.066;15.450;2023-04-24T02:35:22;5.05;;;3.13;;
80320;SDS011;69633;47.066;15.450;2023-04-24T02:37:48;7.57;;;3.22;;
80320;SDS011;69633;47.066;15.450;2023-04-24T02:40:13;8.02;;;3.22;;
80320;SDS011;69633;47.066;15.450;2023-04-24T02:42:39;6.28;;;4.00;;
80320;SDS011;69633;47.066;15.450;2023-04-24T02:45:05;5.75;;;3.38;;
80320;SDS011;69633;47.066;15.450;2023-04-24T02:47:31;6.25;;;3.55;;
80320;SDS011;69633;47.066;15.450;2023-04-24T02:49:56;7.05;;;3.75;;
80320;SDS011;69633;47.066;15.450;2023-04-24T02:52:22;6.07;;;3.50;;
80320;SDS011;69633;47.066;15.450;2023-04-24T02:54:47;7.15;;;3.55;;
80320;SDS011;69633;47.066;15.450;2023-04-24T02:57:13;11.75;;;4.03;;
80320;SDS011;69633;47.066;15.450;2023-04-24T02:59:38;6.68;;;3.42;;
80320;SDS011;69633;47.066;15.450;2023-04-24T03:02:03;6.65;;;3.38;;
80320;SDS011;69633;47.066;15.450;2023-04-24T03:04:29;5.95;;;3.50;;
80320;SDS011;69633;47.066;15.450;2023-04-24T03:06:54;6.55;;;3.47;;
80320;SDS011;69633;47.066;15.450;2023-04-24T03:09:20;7.45;;;4.18;;
80320;SDS011;69633;47.066;15.450;2023-04-24T03:11:46;5.25;;;3.30;;
80320;SDS011;69633;47.066;15.450;2023-04-24T03:14:12;8.38;;;3.97;;
80320;SDS011;69633;47.066;15.450;2023-04-24T03:16:37;7.20;;;4.25;;
80320;SDS011;69633;47.066;15.450;2023-04-24T03:19:03;5.38;;;3.53;;
80320;SDS011;69633;47.066;15.450;2023-04-24T03:21:28;6.18;;;3.67;;
80320;SDS011;69633;47.066;15.450;2023-04-24T03:23:54;6.15;;;3.83;;
80320;SDS011;69633;47.066;15.450;2023-04-24T03:26:19;9.52;;;3.90;;
80320;SDS011;69633;47.066;15.450;2023-04-24T03:28:45;5.50;;;3.75;;
80320;SDS011;69633;47.066;15.450;2023-04-24T03:31:10;6.85;;;3.45;;
80320;SDS011;69633;47.066;15.450;2023-04-24T03:33:36;9.05;;;4.13;;
80320;SDS011;69633;47.066;15.450;2023-04-24T03:36:01;6.07;;;3.88;;
80320;SDS011;69633;47.066;15.450;2023-04-24T03:38:27;7.63;;;3.97;;
80320;SDS011;69633;47.066;15.450;2023-04-24T03:40:53;6.63;;;3.83;;
80320;SDS011;69633;47.066;15.450;2023-04-24T03:43:18;5.13;;;3.17;;
80320;SDS011;69633;47.066;15.450;2023-04-24T03:45:44;6.07;;;3.85;;
80320;SDS011;69633;47.066;15.450;2023-04-24T03:48:09;5.75;;;3.60;;
80320;SDS011;69633;47.066;15.450;2023-04-24T03:50:35;10.68;;;3.58;;
80320;SDS011;69633;47.066;15.450;2023-04-24T03:53:00;10.18;;;3.65;;
80320;SDS011;69633;47.066;15.450;2023-04-24T03:55:26;6.57;;;3.65;;
80320;SDS011;69633;47.066;15.450;2023-04-24T03:57:51;5.88;;;2.75;;
80320;SDS011;69633;47.066;15.450;2023-04-24T04:00:17;6.10;;;3.67;;
80320;SDS011;69633;47.066;15.450;2023-04-24T04:02:43;5.50;;;3.60;;
80320;SDS011;69633;47.066;15.450;2023-04-24T04:05:09;7.40;;;3.38;;
80320;SDS011;69633;47.066;15.450;2023-04-24T04:07:34;6.93;;;3.17;;
80320;SDS011;69633;47.066;15.450;2023-04-24T04:10:00;7.43;;;3.53;;
80320;SDS011;69633;47.066;15.450;2023-04-24T04:12:25;7.57;;;3.90;;
80320;SDS011;69633;47.066;15.450;2023-04-24T04:14:50;8.05;;;3.95;;
80320;SDS011;69633;47.066;15.450;2023-04-24T04:17:16;10.10;;;4.50;;
80320;SDS011;69633;47.066;15.450;2023-04-24T04:19:41;5.78;;;3.72;;
80320;SDS011;69633;47.066;15.450;2023-04-24T04:22:07;7.28;;;4.30;;
80320;SDS011;69633;47.066;15.450;2023-04-24T04:24:33;7.40;;;3.38;;
80320;SDS011;69633;47.066;15.450;2023-04-24T04:27:03;6.93;;;4.18;;
80320;SDS011;69633;47.066;15.450;2023-04-24T04:29:29;9.23;;;3.70;;
80320;SDS011;69633;47.066;15.450;2023-04-24T04:31:56;6.70;;;4.03;;
80320;SDS011;69633;47.066;15.450;2023-04-24T04:34:22;5.63;;;3.70;;
80320;SDS011;69633;47.066;15.450;2023-04-24T04:36:47;6.28;;;3.60;;
80320;SDS011;69633;47.066;15.450;2023-04-24T04:39:13;13.90;;;4.00;;
80320;SDS011;69633;47.066;15.450;2023-04-24T04:41:40;7.95;;;3.85;;
80320;SDS011;69633;47.066;15.450;2023-04-24T04:44:06;9.52;;;4.40;;
80320;SDS011;69633;47.066;15.450;2023-04-24T04:46:33;7.10;;;4.38;;
80320;SDS011;69633;47.066;15.450;2023-04-24T04:49:00;7.78;;;3.38;;
80320;SDS011;69633;47.066;15.450;2023-04-24T04:51:26;8.98;;;4.05;;
80320;SDS011;69633;47.066;15.450;2023-04-24T04:53:52;8.38;;;4.45;;
80320;SDS011;69633;47.066;15.450;2023-04-24T04:56:18;9.68;;;4.15;;
80320;SDS011;69633;47.066;15.450;2023-04-24T04:58:44;5.70;;;3.33;;
80320;SDS011;69633;47.066;15.450;2023-04-24T05:01:09;8.13;;;4.35;;
80320;SDS011;69633;47.066;15.450;2023-04-24T05:03:35;8.32;;;4.38;;
80320;SDS011;69633;47.066;15.450;2023-04-24T05:06:01;11.60;;;5.45;;
80320;SDS011;69633;47.066;15.450;2023-04-24T05:08:27;11.88;;;4.10;;
80320;SDS011;69633;47.066;15.450;2023-04-24T05:10:52;8.73;;;4.40;;
80320;SDS011;69633;47.066;15.450;2023-04-24T05:13:18;9.45;;;4.10;;
80320;SDS011;69633;47.066;15.450;2023-04-24T05:15:44;9.65;;;4.60;;
80320;SDS011;69633;47.066;15.450;2023-04-24T05:18:09;9.40;;;4.53;;
80320;SDS011;69633;47.066;15.450;2023-04-24T05:20:35;6.75;;;3.92;;
80320;SDS011;69633;47.066;15.450;2023-04-24T05:23:00;10.63;;;4.32;;
80320;SDS011;69633;47.066;15.450;2023-04-24T05:25:26;6.88;;;4.10;;
80320;SDS011;69633;47.066;15.450;2023-04-24T05:27:51;11.30;;;5.32;;
80320;SDS011;69633;47.066;15.450;2023-04-24T05:30:18;11.77;;;5.93;;
80320;SDS011;69633;47.066;15.450;2023-04-24T05:32:44;12.40;;;4.88;;
80320;SDS011;69633;47.066;15.450;2023-04-24T05:35:10;10.40;;;5.57;;
80320;SDS011;69633;47.066;15.450;2023-04-24T05:37:35;11.38;;;5.78;;
80320;SDS011;69633;47.066;15.450;2023-04-24T05:40:01;12.65;;;6.10;;
80320;SDS011;69633;47.066;15.450;2023-04-24T05:42:27;13.32;;;5.72;;
80320;SDS011;69633;47.066;15.450;2023-04-24T05:44:52;13.82;;;6.10;;
80320;SDS011;69633;47.066;15.450;2023-04-24T05:47:19;14.98;;;6.13;;
80320;SDS011;69633;47.066;15.450;2023-04-24T05:49:46;9.57;;;5.15;;
80320;SDS011;69633;47.066;15.450;2023-04-24T05:52:12;12.75;;;5.90;;
80320;SDS011;69633;47.066;15.450;2023-04-24T05:54:37;11.45;;;5.28;;
80320;SDS011;69633;47.066;15.450;2023-04-24T05:57:02;9.35;;;5.43;;
80320;SDS011;69633;47.066;15.450;2023-04-24T05:59:32;11.80;;;5.50;;
80320;SDS011;69633;47.066;15.450;2023-04-24T06:01:58;11.32;;;5.82;;
80320;SDS011;69633;47.066;15.450;2023-04-24T06:04:24;9.20;;;5.43;;
80320;SDS011;69633;47.066;15.450;2023-04-24T06:06:49;9.07;;;5.53;;
80320;SDS011;69633;47.066;15.450;2023-04-24T06:09:19;12.00;;;5.35;;
80320;SDS011;69633;47.066;15.450;2023-04-24T06:11:45;12.25;;;5.20;;
80320;SDS011;69633;47.066;15.450;2023-04-24T06:14:10;9.80;;;5.57;;
80320;SDS011;69633;47.066;15.450;2023-04-24T06:16:36;10.27;;;6.32;;
80320;SDS011;69633;47.066;15.450;2023-04-24T06:19:01;8.98;;;5.82;;
80320;SDS011;69633;47.066;15.450;2023-04-24T06:21:27;18.25;;;6.80;;
80320;SDS011;69633;47.066;15.450;2023-04-24T06:23:53;14.30;;;4.85;;
80320;SDS011;69633;47.066;15.450;2023-04-24T06:26:19;11.50;;;5.45;;
80320;SDS011;69633;47.066;15.450;2023-04-24T06:28:44;10.57;;;5.75;;
80320;SDS011;69633;47.066;15.450;2023-04-24T06:31:10;9.27;;;5.57;;
80320;SDS011;69633;47.066;15.450;2023-04-24T06:33:35;11.55;;;6.05;;
80320;SDS011;69633;47.066;15.450;2023-04-24T06:36:01;15.45;;;5.72;;
80320;SDS011;69633;47.066;15.450;2023-04-24T06:38:26;10.95;;;5.63;;
80320;SDS011;69633;47.066;15.450;2023-04-24T06:40:52;11.93;;;6.45;;
80320;SDS011;69633;47.066;15.450;2023-04-24T06:43:17;9.50;;;5.43;;
80320;SDS011;69633;47.066;15.450;2023-04-24T06:45:43;8.25;;;5.25;;
80320;SDS011;69633;47.066;15.450;2023-04-24T06:48:08;12.38;;;5.47;;
80320;SDS011;69633;47.066;15.450;2023-04-24T06:50:35;12.75;;;5.30;;
80320;SDS011;69633;47.066;15.450;2023-04-24T06:53:00;10.13;;;5.30;;
80320;SDS011;69633;47.066;15.450;2023-04-24T06:55:26;13.20;;;5.97;;
80320;SDS011;69633;47.066;15.450;2023-04-24T06:57:51;10.20;;;5.60;;
80320;SDS011;69633;47.066;15.450;2023-04-24T07:00:16;18.00;;;6.63;;
80320;SDS011;69633;47.066;15.450;2023-04-24T07:02:42;8.98;;;5.28;;
80320;SDS011;69633;47.066;15.450;2023-04-24T07:05:07;16.20;;;6.53;;
80320;SDS011;69633;47.066;15.450;2023-04-24T07:07:33;21.58;;;5.82;;
80320;SDS011;69633;47.066;15.450;2023-04-24T07:09:59;11.15;;;5.13;;
80320;SDS011;69633;47.066;15.450;2023-04-24T07:12:25;9.10;;;5.22;;
80320;SDS011;69633;47.066;15.450;2023-04-24T07:14:51;11.63;;;5.75;;
80320;SDS011;69633;47.066;15.450;2023-04-24T07:17:16;13.77;;;6.25;;
80320;SDS011;69633;47.066;15.450;2023-04-24T07:19:42;9.70;;;5.85;;
80320;SDS011;69633;47.066;15.450;2023-04-24T07:22:07;12.60;;;6.78;;
80320;SDS011;69633;47.066;15.450;2023-04-24T07:24:33;14.50;;;7.50;;
80320;SDS011;69633;47.066;15.450;2023-04-24T07:26:58;13.18;;;7.50;;
80320;SDS011;69633;47.066;15.450;2023-04-24T07:29:26;14.80;;;7.45;;
80320;SDS011;69633;47.066;15.450;2023-04-24T07:31:51;15.98;;;7.50;;
80320;SDS011;69633;47.066;15.450;2023-04-24T07:34:19;18.55;;;7.70;;
80320;SDS011;69633;47.066;15.450;2023-04-24T07:36:45;15.38;;;7.47;;
80320;SDS011;69633;47.066;15.450;2023-04-24T07:39:11;14.95;;;6.90;;
80320;SDS011;69633;47.066;15.450;2023-04-24T07:41:36;13.50;;;6.88;;
80320;SDS011;69633;47.066;15.450;2023-04-24T07:44:01;15.98;;;7.57;;
80320;SDS011;69633;47.066;15.450;2023-04-24T07:46:27;12.85;;;7.07;;
80320;SDS011;69633;47.066;15.450;2023-04-24T07:48:55;14.77;;;7.97;;
80320;SDS011;69633;47.066;15.450;2023-04-24T07:51:20;14.88;;;6.88;;
80320;SDS011;69633;47.066;15.450;2023-04-24T07:53:46;12.95;;;6.57;;
80320;SDS011;69633;47.066;15.450;2023-04-24T07:56:12;11.88;;;6.78;;
80320;SDS011;69633;47.066;15.450;2023-04-24T07:58:37;13.10;;;7.15;;
80320;SDS011;69633;47.066;15.450;2023-04-24T08:01:03;12.05;;;6.72;;
80320;SDS011;69633;47.066;15.450;2023-04-24T08:03:28;11.77;;;6.32;;
80320;SDS011;69633;47.066;15.450;2023-04-24T08:05:54;12.20;;;6.57;;
80320;SDS011;69633;47.066;15.450;2023-04-24T08:08:21;15.68;;;6.57;;
80320;SDS011;69633;47.066;15.450;2023-04-24T08:10:47;29.08;;;8.40;;
80320;SDS011;69633;47.066;15.450;2023-04-24T08:13:12;22.80;;;8.75;;
80320;SDS011;69633;47.066;15.450;2023-04-24T08:15:38;19.55;;;8.85;;
80320;SDS011;69633;47.066;15.450;2023-04-24T08:18:04;15.45;;;7.40;;
80320;SDS011;69633;47.066;15.450;2023-04-24T08:20:29;24.73;;;12.32;;
80320;SDS011;69633;47.066;15.450;2023-04-24T08:22:55;12.57;;;7.50;;
80320;SDS011;69633;47.066;15.450;2023-04-24T08:25:21;22.85;;;12.52;;
80320;SDS011;69633;47.066;15.450;2023-04-24T08:27:48;13.38;;;6.25;;
80320;SDS011;69633;47.066;15.450;2023-04-24T08:30:13;16.10;;;7.93;;
80320;SDS011;69633;47.066;15.450;2023-04-24T08:32:39;11.40;;;6.13;;
80320;SDS011;69633;47.066;15.450;2023-04-24T08:35:05;11.82;;;5.78;;
80320;SDS011;69633;47.066;15.450;2023-04-24T08:37:30;14.88;;;8.38;;
80320;SDS011;69633;47.066;15.450;2023-04-24T08:39:56;21.98;;;6.78;;
80320;SDS011;69633;47.066;15.450;2023-04-24T08:42:22;14.18;;;6.35;;
80320;SDS011;69633;47.066;15.450;2023-04-24T08:44:48;11.70;;;5.90;;
80320;SDS011;69633;47.066;15.450;2023-04-24T08:47:15;28.95;;;13.38;;
80320;SDS011;69633;47.066;15.450;2023-04-24T08:49:40;17.20;;;8.80;;
80320;SDS011;69633;47.066;15.450;2023-04-24T08:52:07;16.05;;;7.85;;
80320;SDS011;69633;47.066;15.450;2023-04-24T08:54:36;16.17;;;7.55;;
80320;SDS011;69633;47.066;15.450;2023-04-24T08:57:03;23.23;;;9.48;;
80320;SDS011;69633;47.066;15.450;2023-04-24T08:59:29;17.27;;;7.82;;
80320;SDS011;69633;47.066;15.450;2023-04-24T09:01:55;12.57;;;6.75;;
80320;SDS011;69633;47.066;15.450;2023-04-24T09:04:21;7.70;;;4.90;;
80320;SDS011;69633;47.066;15.450;2023-04-24T09:06:49;17.13;;;6.20;;
80320;SDS011;69633;47.066;15.450;2023-04-24T09:09:20;11.02;;;5.30;;
80320;SDS011;69633;47.066;15.450;2023-04-24T09:11:48;9.70;;;4.78;;
80320;SDS011;69633;47.066;15.450;2023-04-24T09:14:15;9.43;;;4.43;;
80320;SDS011;69633;47.066;15.450;2023-04-24T09:16:41;11.32;;;5.75;;
80320;SDS011;69633;47.066;15.450;2023-04-24T09:19:06;13.00;;;7.75;;
80320;SDS011;69633;47.066;15.450;2023-04-24T09:21:32;13.18;;;5.13;;
80320;SDS011;69633;47.066;15.450;2023-04-24T09:24:00;8.25;;;3.55;;
80320;SDS011;69633;47.066;15.450;2023-04-24T09:26:31;10.32;;;4.45;;
80320;SDS011;69633;47.066;15.450;2023-04-24T09:28:58;8.88;;;4.03;;
80320;SDS011;69633;47.066;15.450;2023-04-24T09:31:24;8.45;;;4.50;;
80320;SDS011;69633;47.066;15.450;2023-04-24T09:36:33;7.15;;;4.13;;
80320;SDS011;69633;47.066;15.450;2023-04-24T09:38:59;7.15;;;3.60;;
80320;SDS011;69633;47.066;15.450;2023-04-24T09:41:26;10.13;;;3.92;;
80320;SDS011;69633;47.066;15.450;2023-04-24T09:43:54;5.13;;;2.53;;
80320;SDS011;69633;47.066;15.450;2023-04-24T09:46:20;7.75;;;3.03;;
80320;SDS011;69633;47.066;15.450;2023-04-24T09:48:47;5.97;;;2.60;;
80320;SDS011;69633;47.066;15.450;2023-04-24T09:51:13;4.25;;;2.40;;
80320;SDS011;69633;47.066;15.450;2023-04-24T09:53:44;5.85;;;2.30;;
80320;SDS011;69633;47.066;15.450;2023-04-24T09:56:10;6.20;;;2.15;;
80320;SDS011;69633;47.066;15.450;2023-04-24T09:58:38;4.82;;;2.35;;
80320;SDS011;69633;47.066;15.450;2023-04-24T10:01:04;5.65;;;2.00;;
80320;SDS011;69633;47.066;15.450;2023-04-24T10:03:30;7.63;;;2.30;;
80320;SDS011;69633;47.066;15.450;2023-04-24T10:06:00;3.60;;;2.00;;
80320;SDS011;69633;47.066;15.450;2023-04-24T10:08:26;4.03;;;1.80;;
80320;SDS011;69633;47.066;15.450;2023-04-24T10:10:58;2.58;;;1.73;;
80320;SDS011;69633;47.066;15.450;2023-04-24T10:13:24;4.28;;;1.60;;
80320;SDS011;69633;47.066;15.450;2023-04-24T10:15:51;4.70;;;1.85;;
80320;SDS011;69633;47.066;15.450;2023-04-24T10:18:16;2.80;;;1.55;;
80320;SDS011;69633;47.066;15.450;2023-04-24T10:20:43;3.55;;;1.60;;
80320;SDS011;69633;47.066;15.450;2023-04-24T10:23:10;3.85;;;1.83;;
80320;SDS011;69633;47.066;15.450;2023-04-24T10:25:36;2.83;;;1.50;;
80320;SDS011;69633;47.066;15.450;2023-04-24T10:28:02;6.15;;;2.00;;
80320;SDS011;69633;47.066;15.450;2023-04-24T10:30:29;4.03;;;1.80;;
80320;SDS011;69633;47.066;15.450;2023-04-24T10:32:59;3.38;;;1.95;;
80320;SDS011;69633;47.066;15.450;2023-04-24T10:35:25;5.85;;;2.25;;
80320;SDS011;69633;47.066;15.450;2023-04-24T10:37:56;6.88;;;2.45;;
80320;SDS011;69633;47.066;15.450;2023-04-24T10:40:30;3.53;;;1.77;;
80320;SDS011;69633;47.066;15.450;2023-04-24T10:42:58;3.75;;;2.03;;
80320;SDS011;69633;47.066;15.450;2023-04-24T10:45:24;5.57;;;1.98;;
80320;SDS011;69633;47.066;15.450;2023-04-24T10:47:56;4.20;;;2.03;;
80320;SDS011;69633;47.066;15.450;2023-04-24T10:50:30;5.07;;;1.88;;
80320;SDS011;69633;47.066;15.450;2023-04-24T10:53:15;3.25;;;1.55;;
80320;SDS011;69633;47.066;15.450;2023-04-24T10:55:52;2.78;;;1.58;;
80320;SDS011;69633;47.066;15.450;2023-04-24T10:58:24;3.70;;;1.70;;
80320;SDS011;69633;47.066;15.450;2023-04-24T11:01:03;3.58;;;1.73;;
80320;SDS011;69633;47.066;15.450;2023-04-24T11:03:33;3.78;;;1.80;;
80320;SDS011;69633;47.066;15.450;2023-04-24T11:08:38;3.92;;;1.60;;
80320;SDS011;69633;47.066;15.450;2023-04-24T11:11:14;2.95;;;1.48;;
80320;SDS011;69633;47.066;15.450;2023-04-24T11:16:21;4.22;;;1.63;;
80320;SDS011;69633;47.066;15.450;2023-04-24T11:19:04;3.67;;;1.25;;
80320;SDS011;69633;47.066;15.450;2023-04-24T11:26:55;4.82;;;1.48;;
80320;SDS011;69633;47.066;15.450;2023-04-24T11:35:16;3.17;;;1.63;;
80320;SDS011;69633;47.066;15.450;2023-04-24T11:37:44;2.47;;;1.42;;
80320;SDS011;69633;47.066;15.450;2023-04-24T11:40:12;1.90;;;1.05;;
80320;SDS011;69633;47.066;15.450;2023-04-24T11:42:40;1.15;;;0.70;;
80320;SDS011;69633;47.066;15.450;2023-04-24T11:45:11;1.92;;;1.10;;
80320;SDS011;69633;47.066;15.450;2023-04-24T11:47:44;4.45;;;0.80;;
80320;SDS011;69633;47.066;15.450;2023-04-24T11:50:11;0.75;;;0.52;;
80320;SDS011;69633;47.066;15.450;2023-04-24T11:52:39;1.42;;;0.90;;
80320;SDS011;69633;47.066;15.450;2023-04-24T11:57:44;2.08;;;1.08;;
80320;SDS011;69633;47.066;15.450;2023-04-24T12:00:20;3.13;;;1.10;;
80320;SDS011;69633;47.066;15.450;2023-04-24T12:02:47;3.83;;;1.00;;
80320;SDS011;69633;47.066;15.450;2023-04-24T12:05:23;1.63;;;1.02;;
80320;SDS011;69633;47.066;15.450;2023-04-24T12:07:52;4.00;;;1.20;;
80320;SDS011;69633;47.066;15.450;2023-04-24T12:10:21;2.50;;;0.98;;
80320;SDS011;69633;47.066;15.450;2023-04-24T12:12:49;3.63;;;1.15;;
80320;SDS011;69633;47.066;15.450;2023-04-24T12:15:16;2.63;;;0.90;;
80320;SDS011;69633;47.066;15.450;2023-04-24T12:17:43;2.33;;;0.90;;
80320;SDS011;69633;47.066;15.450;2023-04-24T12:20:09;4.05;;;0.82;;
80320;SDS011;69633;47.066;15.450;2023-04-24T12:25:22;3.72;;;1.35;;
80320;SDS011;69633;47.066;15.450;2023-04-24T12:28:08;1.50;;;0.80;;
80320;SDS011;69633;47.066;15.450;2023-04-24T12:30:42;2.35;;;0.77;;
80320;SDS011;69633;47.066;15.450;2023-04-24T12:33:10;1.10;;;0.70;;
80320;SDS011;69633;47.066;15.450;2023-04-24T12:35:35;7.47;;;1.23;;
80320;SDS011;69633;47.066;15.450;2023-04-24T12:38:15;5.43;;;0.85;;
80320;SDS011;69633;47.066;15.450;2023-04-24T12:40:41;2.30;;;0.98;;
80320;SDS011;69633;47.066;15.450;2023-04-24T12:43:20;2.50;;;1.45;;
80320;SDS011;69633;47.066;15.450;2023-04-24T12:45:48;1.85;;;0.85;;
80320;SDS011;69633;47.066;15.450;2023-04-24T12:48:13;1.55;;;0.70;;
80320;SDS011;69633;47.066;15.450;2023-04-24T12:50:39;1.45;;;1.00;;
80320;SDS011;69633;47.066;15.450;2023-04-24T12:53:05;3.90;;;0.90;;
80320;SDS011;69633;47.066;15.450;2023-04-24T12:55:31;1.67;;;0.80;;
80320;SDS011;69633;47.066;15.450;2023-04-24T12:57:57;1.73;;;0.70;;
80320;SDS011;69633;47.066;15.450;2023-04-24T13:00:23;2.22;;;0.80;;
80320;SDS011;69633;47.066;15.450;2023-04-24T13:02:48;2.25;;;0.80;;
80320;SDS011;69633;47.066;15.450;2023-04-24T13:05:14;1.40;;;0.90;;
80320;SDS011;69633;47.066;15.450;2023-04-24T13:07:40;2.28;;;0.70;;
80320;SDS011;69633;47.066;15.450;2023-04-24T13:10:06;2.22;;;0.63;;
80320;SDS011;69633;47.066;15.450;2023-04-24T13:12:32;1.55;;;0.60;;
80320;SDS011;69633;47.066;15.450;2023-04-24T13:14:58;1.40;;;0.80;;
80320;SDS011;69633;47.066;15.450;2023-04-24T13:17:24;3.97;;;0.68;;
80320;SDS011;69633;47.066;15.450;2023-04-24T13:19:50;7.45;;;0.98;;
80320;SDS011;69633;47.066;15.450;2023-04-24T13:22:28;0.88;;;0.50;;
80320;SDS011;69633;47.066;15.450;2023-04-24T13:24:54;1.00;;;0.70;;
80320;SDS011;69633;47.066;15.450;2023-04-24T13:27:19;0.68;;;0.55;;
80320;SDS011;69633;47.066;15.450;2023-04-24T13:29:45;1.08;;;0.70;;
80320;SDS011;69633;47.066;15.450;2023-04-24T13:32:10;1.55;;;0.60;;
80320;SDS011;69633;47.066;15.450;2023-04-24T13:34:36;2.25;;;0.60;;
80320;SDS011;69633;47.066;15.450;2023-04-24T13:37:02;2.78;;;0.70;;
80320;SDS011;69633;47.066;15.450;2023-04-24T13:39:28;1.70;;;0.50;;
80320;SDS011;69633;47.066;15.450;2023-04-24T13:41:54;1.77;;;0.60;;
80320;SDS011;69633;47.066;15.450;2023-04-24T13:44:20;2.05;;;0.60;;
80320;SDS011;69633;47.066;15.450;2023-04-24T13:46:48;2.70;;;0.68;;
80320;SDS011;69633;47.066;15.450;2023-04-24T13:49:15;1.45;;;0.60;;
80320;SDS011;69633;47.066;15.450;2023-04-24T13:51:41;1.48;;;0.90;;
80320;SDS011;69633;47.066;15.450;2023-04-24T13:54:08;2.67;;;1.38;;
80320;SDS011;69633;47.066;15.450;2023-04-24T13:56:33;2.83;;;0.80;;
80320;SDS011;69633;47.066;15.450;2023-04-24T13:58:59;1.33;;;0.90;;
80320;SDS011;69633;47.066;15.450;2023-04-24T14:01:25;4.97;;;1.00;;
80320;SDS011;69633;47.066;15.450;2023-04-24T14:03:52;1.30;;;0.85;;
80320;SDS011;69633;47.066;15.450;2023-04-24T14:06:18;2.80;;;1.40;;
80320;SDS011;69633;47.066;15.450;2023-04-24T14:08:44;1.63;;;1.00;;
80320;SDS011;69633;47.066;15.450;2023-04-24T14:11:10;1.42;;;0.85;;
80320;SDS011;69633;47.066;15.450;2023-04-24T14:13:36;1.13;;;0.77;;
80320;SDS011;69633;47.066;15.450;2023-04-24T14:16:02;1.20;;;0.77;;
80320;SDS011;69633;47.066;15.450;2023-04-24T14:18:29;1.80;;;0.85;;
80320;SDS011;69633;47.066;15.450;2023-04-24T14:20:54;1.50;;;0.80;;
80320;SDS011;69633;47.066;15.450;2023-04-24T14:23:20;1.90;;;0.80;;
80320;SDS011;69633;47.066;15.450;2023-04-24T14:25:45;0.95;;;0.60;;
80320;SDS011;69633;47.066;15.450;2023-04-24T14:28:11;0.90;;;0.65;;
80320;SDS011;69633;47.066;15.450;2023-04-24T14:30:36;2.63;;;0.80;;
80320;SDS011;69633;47.066;15.450;2023-04-24T14:33:02;1.13;;;0.70;;
80320;SDS011;69633;47.066;15.450;2023-04-24T14:35:29;1.05;;;0.73;;
80320;SDS011;69633;47.066;15.450;2023-04-24T14:37:56;2.33;;;0.80;;
80320;SDS011;69633;47.066;15.450;2023-04-24T14:40:22;1.88;;;0.98;;
80320;SDS011;69633;47.066;15.450;2023-04-24T14:42:47;1.17;;;0.73;;
80320;SDS011;69633;47.066;15.450;2023-04-24T14:45:13;9.90;;;1.42;;
80320;SDS011;69633;47.066;15.450;2023-04-24T14:47:38;2.28;;;0.70;;
80320;SDS011;69633;47.066;15.450;2023-04-24T14:50:04;1.58;;;0.88;;
80320;SDS011;69633;47.066;15.450;2023-04-24T14:52:30;3.42;;;1.30;;